sensor_id;sensor_type;location;lat;lon;timestamp;pressure;altitude;pressure_sealevel;temperature;humidity
63115;BME280;49208;50.874;6.466;2023-02-03T07:01:29;101398.06;;;7.61;97.50
63115;BME280;49208;50.874;6.466;2023-02-03T07:03:55;101401.63;;;7.58;97.70
63115;BME280;49208;50.874;6.466;2023-02-03T07:06:23;101383.09;;;7.60;97.98
63115;BME280;49208;50.874;6.466;2023-02-03T07:08:54;101373.41;;;7.56;97.65
63115;BME280;49208;50.874;6.466;2023-02-03T07:11:19;101365.47;;;7.56;97.60
63115;BME280;49208;50.874;6.466;2023-02-03T07:13:45;101377.81;;;7.55;97.50
63115;BME280;49208;50.874;6.466;2023-02-03T07:16:10;101367.19;;;7.55;97.32
63115;BME280;49208;50.874;6.466;2023-02-03T07:18:35;101373.41;;;7.54;97.54
63115;BME280;49208;50.874;6.466;2023-02-03T07:21:03;101375.19;;;7.54;97.68
63115;BME280;49208;50.874;6.466;2023-02-03T07:23:29;101373.41;;;7.54;97.71
63115;BME280;49208;50.874;6.466;2023-02-03T07:26:01;101391.94;;;7.56;97.52
63115;BME280;49208;50.874;6.466;2023-02-03T07:28:29;101387.53;;;7.56;97.32
63115;BME280;49208;50.874;6.466;2023-02-03T07:30:54;101391.91;;;7.60;97.03
63115;BME280;49208;50.874;6.466;2023-02-03T07:33:20;101407.81;;;7.60;97.20
63115;BME280;49208;50.874;6.466;2023-02-03T07:35:57;101400.72;;;7.64;97.05
63115;BME280;49208;50.874;6.466;2023-02-03T07:38:24;101403.38;;;7.64;97.35
63115;BME280;49208;50.874;6.466;2023-02-03T07:40:49;101413.97;;;7.62;97.27
63115;BME280;49208;50.874;6.466;2023-02-03T07:43:15;101406.88;;;7.64;97.05
63115;BME280;49208;50.874;6.466;2023-02-03T07:45:41;101405.97;;;7.65;97.14
63115;BME280;49208;50.874;6.466;2023-02-03T07:48:06;101415.72;;;7.65;96.97
63115;BME280;49208;50.874;6.466;2023-02-03T07:50:32;101405.97;;;7.68;96.79
63115;BME280;49208;50.874;6.466;2023-02-03T07:52:58;101411.28;;;7.68;96.63
63115;BME280;49208;50.874;6.466;2023-02-03T07:55:23;101416.56;;;7.70;97.23
63115;BME280;49208;50.874;6.466;2023-02-03T07:57:48;101416.56;;;7.70;96.91
63115;BME280;49208;50.874;6.466;2023-02-03T08:00:15;101429.78;;;7.75;96.63
63115;BME280;49208;50.874;6.466;2023-02-03T08:02:44;101441.25;;;7.74;96.98
63115;BME280;49208;50.874;6.466;2023-02-03T08:05:10;101443.91;;;7.77;96.67
63115;BME280;49208;50.874;6.466;2023-02-03T08:07:36;101451.84;;;7.78;96.75
63115;BME280;49208;50.874;6.466;2023-02-03T08:10:02;101440.34;;;7.78;96.69
63115;BME280;49208;50.874;6.466;2023-02-03T08:12:28;101449.16;;;7.80;96.32
63115;BME280;49208;50.874;6.466;2023-02-03T08:14:53;101451.81;;;7.80;96.18
63115;BME280;49208;50.874;6.466;2023-02-03T08:17:19;101447.41;;;7.80;95.87
63115;BME280;49208;50.874;6.466;2023-02-03T08:19:44;101450.94;;;7.79;95.98
63115;BME280;49208;50.874;6.466;2023-02-03T08:22:09;101445.63;;;7.81;95.97
63115;BME280;49208;50.874;6.466;2023-02-03T08:24:47;101468.56;;;7.82;95.60
63115;BME280;49208;50.874;6.466;2023-02-03T08:27:14;101443.84;;;7.81;95.62
63115;BME280;49208;50.874;6.466;2023-02-03T08:29:40;101467.72;;;7.80;96.19
63115;BME280;49208;50.874;6.466;2023-02-03T08:32:08;101463.31;;;7.79;95.80
63115;BME280;49208;50.874;6.466;2023-02-03T08:34:34;101466.84;;;7.82;96.03
63115;BME280;49208;50.874;6.466;2023-02-03T08:37:00;101479.22;;;7.80;96.16
63115;BME280;49208;50.874;6.466;2023-02-03T08:39:25;101473.91;;;7.79;96.45
63115;BME280;49208;50.874;6.466;2023-02-03T08:41:51;101481.00;;;7.77;96.47
63115;BME280;49208;50.874;6.466;2023-02-03T08:44:16;101476.56;;;7.80;96.67
63115;BME280;49208;50.874;6.466;2023-02-03T08:46:44;101480.06;;;7.84;96.59
63115;BME280;49208;50.874;6.466;2023-02-03T08:49:09;101480.06;;;7.84;96.61
63115;BME280;49208;50.874;6.466;2023-02-03T08:51:35;101493.31;;;7.84;97.18
63115;BME280;49208;50.874;6.466;2023-02-03T08:54:01;101485.38;;;7.81;97.83
63115;BME280;49208;50.874;6.466;2023-02-03T08:56:27;101488.00;;;7.85;97.62
63115;BME280;49208;50.874;6.466;2023-02-03T08:58:53;101495.94;;;7.84;97.74
63115;BME280;49208;50.874;6.466;2023-02-03T09:01:19;101490.69;;;7.82;97.98
63115;BME280;49208;50.874;6.466;2023-02-03T09:03:44;101490.66;;;7.85;97.53
63115;BME280;49208;50.874;6.466;2023-02-03T09:06:10;101492.47;;;7.80;97.97
63115;BME280;49208;50.874;6.466;2023-02-03T09:08:41;101487.16;;;7.80;97.72
63115;BME280;49208;50.874;6.466;2023-02-03T09:11:14;101481.81;;;7.83;97.69
63115;BME280;49208;50.874;6.466;2023-02-03T09:13:40;101468.56;;;7.82;97.39
63115;BME280;49208;50.874;6.466;2023-02-03T09:16:10;101489.78;;;7.82;97.95
63115;BME280;49208;50.874;6.466;2023-02-03T09:18:36;101475.66;;;7.83;98.11
63115;BME280;49208;50.874;6.466;2023-02-03T09:21:03;101490.66;;;7.85;97.94
63115;BME280;49208;50.874;6.466;2023-02-03T09:23:28;101490.66;;;7.87;97.52
63115;BME280;49208;50.874;6.466;2023-02-03T09:25:54;101491.50;;;7.87;97.95
63115;BME280;49208;50.874;6.466;2023-02-03T09:28:19;101480.00;;;7.92;98.13
63115;BME280;49208;50.874;6.466;2023-02-03T09:30:44;101483.53;;;7.90;98.67
63115;BME280;49208;50.874;6.466;2023-02-03T09:33:11;101482.66;;;7.90;99.13
63115;BME280;49208;50.874;6.466;2023-02-03T09:35:37;101474.69;;;7.92;99.38
63115;BME280;49208;50.874;6.466;2023-02-03T09:38:03;101471.13;;;7.93;99.45
63115;BME280;49208;50.874;6.466;2023-02-03T09:40:32;101472.91;;;7.95;100.00
63115;BME280;49208;50.874;6.466;2023-02-03T09:43:34;101493.22;;;7.95;100.00
63115;BME280;49208;50.874;6.466;2023-02-03T09:46:18;101484.44;;;7.89;100.00
63115;BME280;49208;50.874;6.466;2023-02-03T09:48:55;101474.75;;;7.84;100.00
63115;BME280;49208;50.874;6.466;2023-02-03T09:51:25;101490.66;;;7.85;100.00
63115;BME280;49208;50.874;6.466;2023-02-03T09:54:14;101480.09;;;7.81;100.00
63115;BME280;49208;50.874;6.466;2023-02-03T09:56:41;101487.19;;;7.77;100.00
63115;BME280;49208;50.874;6.466;2023-02-03T09:59:14;101489.88;;;7.74;100.00
63115;BME280;49208;50.874;6.466;2023-02-03T10:01:53;101485.44;;;7.73;100.00
63115;BME280;49208;50.874;6.466;2023-02-03T10:07:06;101484.56;;;7.74;100.00
63115;BME280;49208;50.874;6.466;2023-02-03T10:17:51;101501.38;;;7.68;100.00
63115;BME280;49208;50.874;6.466;2023-02-03T10:20:28;101504.03;;;7.68;100.00
63115;BME280;49208;50.874;6.466;2023-02-03T10:23:01;101529.66;;;7.66;100.00
63115;BME280;49208;50.874;6.466;2023-02-03T10:27:59;101513.75;;;7.63;100.00
63115;BME280;49208;50.874;6.466;2023-02-03T10:30:40;101523.47;;;7.63;100.00
63115;BME280;49208;50.874;6.466;2023-02-03T10:33:13;101547.34;;;7.66;100.00
63115;BME280;49208;50.874;6.466;2023-02-03T10:36:30;101546.44;;;7.65;100.00
63115;BME280;49208;50.874;6.466;2023-02-03T10:41:07;101545.56;;;7.65;100.00
63115;BME280;49208;50.874;6.466;2023-02-03T10:43:33;101538.50;;;7.64;100.00
63115;BME280;49208;50.874;6.466;2023-02-03T10:46:15;101530.56;;;7.64;100.00
63115;BME280;49208;50.874;6.466;2023-02-03T10:48:41;101531.44;;;7.64;100.00
63115;BME280;49208;50.874;6.466;2023-02-03T10:51:16;101525.22;;;7.67;100.00
63115;BME280;49208;50.874;6.466;2023-02-03T10:53:42;101510.22;;;7.66;100.00
63115;BME280;49208;50.874;6.466;2023-02-03T10:56:12;101496.97;;;7.66;100.00
63115;BME280;49208;50.874;6.466;2023-02-03T10:58:44;101501.38;;;7.68;100.00
63115;BME280;49208;50.874;6.466;2023-02-03T11:01:15;101503.13;;;7.74;100.00
63115;BME280;49208;50.874;6.466;2023-02-03T11:03:43;101505.72;;;7.76;100.00
63115;BME280;49208;50.874;6.466;2023-02-03T11:06:17;101506.59;;;7.81;100.00
63115;BME280;49208;50.874;6.466;2023-02-03T11:08:45;101492.44;;;7.82;100.00
63115;BME280;49208;50.874;6.466;2023-02-03T11:11:19;101484.53;;;7.79;100.00
63115;BME280;49208;50.874;6.466;2023-02-03T11:13:45;101491.56;;;7.80;100.00
63115;BME280;49208;50.874;6.466;2023-02-03T11:16:14;101490.69;;;7.82;100.00
63115;BME280;49208;50.874;6.466;2023-02-03T11:21:47;101493.31;;;7.84;100.00
63115;BME280;49208;50.874;6.466;2023-02-03T11:24:20;101498.59;;;7.85;100.00
63115;BME280;49208;50.874;6.466;2023-02-03T11:26:58;101510.06;;;7.86;100.00
63115;BME280;49208;50.874;6.466;2023-02-03T11:29:31;101503.00;;;7.88;100.00
63115;BME280;49208;50.874;6.466;2023-02-03T11:32:00;101496.78;;;7.90;100.00
63115;BME280;49208;50.874;6.466;2023-02-03T11:34:30;101488.81;;;7.94;100.00
63115;BME280;49208;50.874;6.466;2023-02-03T11:36:56;101487.91;;;7.98;100.00
63115;BME280;49208;50.874;6.466;2023-02-03T11:39:29;101476.38;;;8.00;100.00
63115;BME280;49208;50.874;6.466;2023-02-03T11:42:00;101470.16;;;8.06;100.00
63115;BME280;49208;50.874;6.466;2023-02-03T11:44:27;101469.25;;;8.12;100.00
63115;BME280;49208;50.874;6.466;2023-02-03T11:47:06;101470.97;;;8.13;100.00
63115;BME280;49208;50.874;6.466;2023-02-03T11:54:58;101476.28;;;8.13;100.00
63115;BME280;49208;50.874;6.466;2023-02-03T11:57:38;101482.50;;;8.12;100.00
63115;BME280;49208;50.874;6.466;2023-02-03T12:08:08;101518.69;;;8.16;100.00
63115;BME280;49208;50.874;6.466;2023-02-03T12:13:29;101527.50;;;8.19;100.00
63115;BME280;49208;50.874;6.466;2023-02-03T12:18:47;101519.47;;;8.27;100.00
63115;BME280;49208;50.874;6.466;2023-02-03T12:29:13;101514.09;;;8.41;100.00
63115;BME280;49208;50.874;6.466;2023-02-03T12:39:58;101507.88;;;8.37;100.00
63115;BME280;49208;50.874;6.466;2023-02-03T12:42:42;101506.97;;;8.38;100.00
63115;BME280;49208;50.874;6.466;2023-02-03T12:45:15;101504.38;;;8.37;100.00
63115;BME280;49208;50.874;6.466;2023-02-03T12:47:46;101499.06;;;8.32;100.00
63115;BME280;49208;50.874;6.466;2023-02-03T12:50:26;101505.28;;;8.31;100.00
63115;BME280;49208;50.874;6.466;2023-02-03T12:52:59;101500.91;;;8.27;100.00
63115;BME280;49208;50.874;6.466;2023-02-03T12:55:36;101500.03;;;8.26;100.00
63115;BME280;49208;50.874;6.466;2023-02-03T12:58:13;101512.44;;;8.23;100.00
63115;BME280;49208;50.874;6.466;2023-02-03T13:00:51;101502.75;;;8.22;100.00
63115;BME280;49208;50.874;6.466;2023-02-03T13:03:41;101506.31;;;8.16;100.00
63115;BME280;49208;50.874;6.466;2023-02-03T13:06:15;101505.44;;;8.13;100.00
63115;BME280;49208;50.874;6.466;2023-02-03T13:08:50;101501.88;;;8.15;100.00
63115;BME280;49208;50.874;6.466;2023-02-03T13:11:32;101501.03;;;8.13;100.00
63115;BME280;49208;50.874;6.466;2023-02-03T13:16:51;101492.19;;;8.13;100.00
63115;BME280;49208;50.874;6.466;2023-02-03T13:19:23;101501.06;;;8.12;100.00
63115;BME280;49208;50.874;6.466;2023-02-03T13:21:50;101509.88;;;8.12;100.00
63115;BME280;49208;50.874;6.466;2023-02-03T13:24:17;101509.00;;;8.12;100.00
63115;BME280;49208;50.874;6.466;2023-02-03T13:43:05;101503.72;;;8.08;100.00
63115;BME280;49208;50.874;6.466;2023-02-03T13:45:48;101505.44;;;8.13;100.00
63115;BME280;49208;50.874;6.466;2023-02-03T13:50:43;101507.25;;;8.10;100.00
63115;BME280;49208;50.874;6.466;2023-02-03T13:55:50;101493.97;;;8.10;100.00
63115;BME280;49208;50.874;6.466;2023-02-03T13:58:31;101490.47;;;8.08;100.00
63115;BME280;49208;50.874;6.466;2023-02-03T14:01:00;101510.81;;;8.08;100.00
63115;BME280;49208;50.874;6.466;2023-02-03T14:05:57;101506.41;;;8.05;100.00
63115;BME280;49208;50.874;6.466;2023-02-03T14:16:44;101516.16;;;7.99;100.00
63115;BME280;49208;50.874;6.466;2023-02-03T14:21:57;101526.84;;;7.91;100.00
63115;BME280;49208;50.874;6.466;2023-02-03T14:24:30;101524.19;;;7.88;100.00
63115;BME280;49208;50.874;6.466;2023-02-03T14:26:57;101534.84;;;7.86;100.00
63115;BME280;49208;50.874;6.466;2023-02-03T14:29:28;101529.53;;;7.82;100.00
63115;BME280;49208;50.874;6.466;2023-02-03T14:31:57;101538.41;;;7.81;100.00
63115;BME280;49208;50.874;6.466;2023-02-03T14:37:50;101548.09;;;7.82;100.00
63115;BME280;49208;50.874;6.466;2023-02-03T14:40:18;101547.22;;;7.80;100.00
63115;BME280;49208;50.874;6.466;2023-02-03T14:43:06;101544.56;;;7.80;100.00
63115;BME280;49208;50.874;6.466;2023-02-03T14:54:15;101543.66;;;7.87;100.00
63115;BME280;49208;50.874;6.466;2023-02-03T14:59:38;101544.50;;;7.90;100.00
63115;BME280;49208;50.874;6.466;2023-02-03T15:04:32;101555.09;;;7.95;100.00
63115;BME280;49208;50.874;6.466;2023-02-03T15:06:57;101545.31;;;8.00;100.00
63115;BME280;49208;50.874;6.466;2023-02-03T15:09:33;101550.56;;;8.08;100.00
63115;BME280;49208;50.874;6.466;2023-02-03T15:12:00;101552.28;;;8.15;100.00
63115;BME280;49208;50.874;6.466;2023-02-03T15:14:27;101548.72;;;8.19;100.00
63115;BME280;49208;50.874;6.466;2023-02-03T15:17:10;101559.25;;;8.27;100.00
63115;BME280;49208;50.874;6.466;2023-02-03T15:19:41;101557.47;;;8.29;100.00
63115;BME280;49208;50.874;6.466;2023-02-03T15:22:22;101551.31;;;8.28;100.00
63115;BME280;49208;50.874;6.466;2023-02-03T15:24:50;101553.91;;;8.33;100.00
63115;BME280;49208;50.874;6.466;2023-02-03T15:27:25;101561.00;;;8.29;100.00
63115;BME280;49208;50.874;6.466;2023-02-03T15:29:52;101573.41;;;8.29;100.00
63115;BME280;49208;50.874;6.466;2023-02-03T15:32:20;101575.19;;;8.30;100.00
63115;BME280;49208;50.874;6.466;2023-02-03T15:34:50;101569.00;;;8.28;100.00
63115;BME280;49208;50.874;6.466;2023-02-03T15:42:33;101577.00;;;8.19;100.00
63115;BME280;49208;50.874;6.466;2023-02-03T15:45:06;101571.75;;;8.14;100.00
63115;BME280;49208;50.874;6.466;2023-02-03T15:47:38;101576.19;;;8.10;100.00
63115;BME280;49208;50.874;6.466;2023-02-03T15:50:14;101586.78;;;8.10;100.00
63115;BME280;49208;50.874;6.466;2023-02-03T15:52:46;101590.34;;;8.09;100.00
63115;BME280;49208;50.874;6.466;2023-02-03T15:55:23;101583.28;;;8.07;100.00
63115;BME280;49208;50.874;6.466;2023-02-03T15:57:52;101589.50;;;8.03;100.00
63115;BME280;49208;50.874;6.466;2023-02-03T16:00:31;101579.78;;;8.00;100.00
63115;BME280;49208;50.874;6.466;2023-02-03T16:02:59;101586.00;;;7.99;100.00
63115;BME280;49208;50.874;6.466;2023-02-03T16:05:34;101592.19;;;7.98;100.00
63115;BME280;49208;50.874;6.466;2023-02-03T16:08:36;101586.91;;;7.95;100.00
63115;BME280;49208;50.874;6.466;2023-02-03T16:11:29;101587.78;;;7.94;100.00
63115;BME280;49208;50.874;6.466;2023-02-03T16:13:56;101586.91;;;7.92;100.00
63115;BME280;49208;50.874;6.466;2023-02-03T16:16:24;101600.16;;;7.92;100.00
63115;BME280;49208;50.874;6.466;2023-02-03T16:18:55;101595.78;;;7.91;100.00
63115;BME280;49208;50.874;6.466;2023-02-03T16:21:29;101603.72;;;7.89;100.00
63115;BME280;49208;50.874;6.466;2023-02-03T16:23:56;101613.47;;;7.89;100.00
63115;BME280;49208;50.874;6.466;2023-02-03T16:26:23;101607.25;;;7.88;100.00
63115;BME280;49208;50.874;6.466;2023-02-03T16:29:09;101614.31;;;7.89;100.00
63115;BME280;49208;50.874;6.466;2023-02-03T16:31:54;101616.09;;;7.89;100.00
63115;BME280;49208;50.874;6.466;2023-02-03T16:34:38;101630.22;;;7.91;100.00
63115;BME280;49208;50.874;6.466;2023-02-03T16:37:31;101630.22;;;7.91;100.00
63115;BME280;49208;50.874;6.466;2023-02-03T16:40:21;101630.19;;;7.93;100.00
63115;BME280;49208;50.874;6.466;2023-02-03T16:43:10;101628.47;;;7.92;100.00
63115;BME280;49208;50.874;6.466;2023-02-03T16:45:56;101642.59;;;7.90;100.00
63115;BME280;49208;50.874;6.466;2023-02-03T16:48:41;101647.91;;;7.89;100.00
63115;BME280;49208;50.874;6.466;2023-02-03T16:51:25;101648.78;;;7.88;100.00
63115;BME280;49208;50.874;6.466;2023-02-03T16:53:53;101655.88;;;7.87;100.00
63115;BME280;49208;50.874;6.466;2023-02-03T16:56:18;101656.78;;;7.86;100.00
63115;BME280;49208;50.874;6.466;2023-02-03T16:58:44;101657.66;;;7.87;100.00
63115;BME280;49208;50.874;6.466;2023-02-03T17:01:10;101653.22;;;7.86;100.00
63115;BME280;49208;50.874;6.466;2023-02-03T17:03:36;101645.28;;;7.87;100.00
63115;BME280;49208;50.874;6.466;2023-02-03T17:06:04;101652.34;;;7.85;100.00
63115;BME280;49208;50.874;6.466;2023-02-03T17:08:31;101640.88;;;7.85;100.00
63115;BME280;49208;50.874;6.466;2023-02-03T17:11:02;101648.81;;;7.83;100.00
63115;BME280;49208;50.874;6.466;2023-02-03T17:13:28;101655.00;;;7.84;100.00
63115;BME280;49208;50.874;6.466;2023-02-03T17:15:54;101663.84;;;7.81;100.00
63115;BME280;49208;50.874;6.466;2023-02-03T17:18:20;101661.19;;;7.81;100.00
63115;BME280;49208;50.874;6.466;2023-02-03T17:20:45;101661.19;;;7.83;100.00
63115;BME280;49208;50.874;6.466;2023-02-03T17:23:12;101662.06;;;7.85;100.00
63115;BME280;49208;50.874;6.466;2023-02-03T17:25:38;101677.97;;;7.86;100.00
63115;BME280;49208;50.874;6.466;2023-02-03T17:28:05;101679.72;;;7.87;100.00
63115;BME280;49208;50.874;6.466;2023-02-03T17:30:31;101677.94;;;7.88;100.00
63115;BME280;49208;50.874;6.466;2023-02-03T17:33:04;101678.81;;;7.90;100.00
63115;BME280;49208;50.874;6.466;2023-02-03T17:35:40;101669.13;;;7.89;100.00
63115;BME280;49208;50.874;6.466;2023-02-03T17:38:06;101685.03;;;7.87;100.00
63115;BME280;49208;50.874;6.466;2023-02-03T17:40:32;101698.28;;;7.87;100.00
63115;BME280;49208;50.874;6.466;2023-02-03T17:42:57;101692.09;;;7.90;100.00
63115;BME280;49208;50.874;6.466;2023-02-03T17:45:23;101687.69;;;7.89;100.00
63115;BME280;49208;50.874;6.466;2023-02-03T17:47:50;101697.38;;;7.88;100.00
63115;BME280;49208;50.874;6.466;2023-02-03T17:50:15;101703.59;;;7.86;100.00
63115;BME280;49208;50.874;6.466;2023-02-03T17:52:42;101700.97;;;7.84;100.00
63115;BME280;49208;50.874;6.466;2023-02-03T17:55:08;101699.19;;;7.82;100.00
63115;BME280;49208;50.874;6.466;2023-02-03T17:57:36;101706.28;;;7.78;100.00
63115;BME280;49208;50.874;6.466;2023-02-03T18:00:02;101711.59;;;7.78;100.00
63115;BME280;49208;50.874;6.466;2023-02-03T18:02:28;101708.94;;;7.77;100.00
63115;BME280;49208;50.874;6.466;2023-02-03T18:04:53;101714.19;;;7.89;100.00
63115;BME280;49208;50.874;6.466;2023-02-03T18:07:18;101717.66;;;7.99;100.00
63115;BME280;49208;50.874;6.466;2023-02-03T18:09:44;101715.03;;;7.94;100.00
63115;BME280;49208;50.874;6.466;2023-02-03T18:12:09;101727.44;;;7.89;100.00
63115;BME280;49208;50.874;6.466;2023-02-03T18:14:35;101715.97;;;7.87;100.00
63115;BME280;49208;50.874;6.466;2023-02-03T18:17:00;101731.00;;;7.86;100.00
63115;BME280;49208;50.874;6.466;2023-02-03T18:19:25;101741.59;;;7.91;100.00
63115;BME280;49208;50.874;6.466;2023-02-03T18:21:51;101738.94;;;7.91;100.00
63115;BME280;49208;50.874;6.466;2023-02-03T18:24:16;101738.94;;;7.89;100.00
63115;BME280;49208;50.874;6.466;2023-02-03T18:26:47;101747.75;;;7.88;100.00
63115;BME280;49208;50.874;6.466;2023-02-03T18:29:13;101756.59;;;7.87;100.00
63115;BME280;49208;50.874;6.466;2023-02-03T18:31:38;101757.50;;;7.86;100.00
63115;BME280;49208;50.874;6.466;2023-02-03T18:34:04;101760.16;;;7.86;100.00
63115;BME280;49208;50.874;6.466;2023-02-03T18:36:31;101763.69;;;7.84;100.00
63115;BME280;49208;50.874;6.466;2023-02-03T18:38:56;101770.75;;;7.85;100.00
63115;BME280;49208;50.874;6.466;2023-02-03T18:41:23;101774.28;;;7.84;100.00
63115;BME280;49208;50.874;6.466;2023-02-03T18:43:49;101754.84;;;7.83;100.00
63115;BME280;49208;50.874;6.466;2023-02-03T18:46:26;101768.13;;;7.85;100.00
63115;BME280;49208;50.874;6.466;2023-02-03T18:48:52;101775.16;;;7.86;100.00
63115;BME280;49208;50.874;6.466;2023-02-03T18:51:19;101789.28;;;7.88;100.00
63115;BME280;49208;50.874;6.466;2023-02-03T18:53:45;101782.22;;;7.90;100.00
63115;BME280;49208;50.874;6.466;2023-02-03T18:56:17;101768.97;;;7.92;100.00
63115;BME280;49208;50.874;6.466;2023-02-03T18:58:43;101777.78;;;7.97;100.00
63115;BME280;49208;50.874;6.466;2023-02-03T19:01:08;101781.34;;;7.97;100.00
63115;BME280;49208;50.874;6.466;2023-02-03T19:03:34;101783.94;;;7.99;100.00
63115;BME280;49208;50.874;6.466;2023-02-03T19:06:00;101791.91;;;8.02;100.00
63115;BME280;49208;50.874;6.466;2023-02-03T19:08:25;101786.59;;;8.00;100.00
63115;BME280;49208;50.874;6.466;2023-02-03T19:10:52;101786.59;;;8.00;100.00
63115;BME280;49208;50.874;6.466;2023-02-03T19:13:18;101806.03;;;8.02;100.00
63115;BME280;49208;50.874;6.466;2023-02-03T19:15:45;101804.31;;;8.01;100.00
63115;BME280;49208;50.874;6.466;2023-02-03T19:18:11;101810.47;;;8.02;100.00
63115;BME280;49208;50.874;6.466;2023-02-03T19:20:37;101804.28;;;8.00;100.00
63115;BME280;49208;50.874;6.466;2023-02-03T19:23:02;101806.06;;;7.99;100.00
63115;BME280;49208;50.874;6.466;2023-02-03T19:25:34;101808.72;;;7.99;100.00
63115;BME280;49208;50.874;6.466;2023-02-03T19:27:59;101796.34;;;8.00;100.00
63115;BME280;49208;50.874;6.466;2023-02-03T19:30:25;101794.59;;;7.96;100.00
63115;BME280;49208;50.874;6.466;2023-02-03T19:32:51;101799.88;;;7.96;100.00
63115;BME280;49208;50.874;6.466;2023-02-03T19:35:16;101805.19;;;7.96;100.00
63115;BME280;49208;50.874;6.466;2023-02-03T19:37:42;101800.75;;;7.95;100.00
63115;BME280;49208;50.874;6.466;2023-02-03T19:40:08;101808.75;;;7.93;100.00
63115;BME280;49208;50.874;6.466;2023-02-03T19:42:34;101810.50;;;7.91;100.00
63115;BME280;49208;50.874;6.466;2023-02-03T19:44:59;101809.63;;;7.89;100.00
63115;BME280;49208;50.874;6.466;2023-02-03T19:47:24;101806.09;;;7.87;100.00
63115;BME280;49208;50.874;6.466;2023-02-03T19:49:50;101815.84;;;7.86;100.00
63115;BME280;49208;50.874;6.466;2023-02-03T19:52:15;101807.88;;;7.83;100.00
63115;BME280;49208;50.874;6.466;2023-02-03T19:54:41;101821.13;;;7.79;100.00
63115;BME280;49208;50.874;6.466;2023-02-03T19:57:06;101807.00;;;7.75;100.00
63115;BME280;49208;50.874;6.466;2023-02-03T19:59:32;101816.72;;;7.75;100.00
63115;BME280;49208;50.874;6.466;2023-02-03T20:01:57;101819.38;;;7.73;100.00
63115;BME280;49208;50.874;6.466;2023-02-03T20:04:23;101815.84;;;7.74;100.00
63115;BME280;49208;50.874;6.466;2023-02-03T20:06:48;101826.47;;;7.74;100.00
63115;BME280;49208;50.874;6.466;2023-02-03T20:09:14;101826.44;;;7.71;100.00
63115;BME280;49208;50.874;6.466;2023-02-03T20:11:39;101830.88;;;7.71;100.00
63115;BME280;49208;50.874;6.466;2023-02-03T20:14:05;101834.41;;;7.71;100.00
63115;BME280;49208;50.874;6.466;2023-02-03T20:16:30;101832.63;;;7.73;100.00
63115;BME280;49208;50.874;6.466;2023-02-03T20:18:55;101841.44;;;7.74;100.00
63115;BME280;49208;50.874;6.466;2023-02-03T20:21:21;101843.22;;;7.75;100.00
63115;BME280;49208;50.874;6.466;2023-02-03T20:23:46;101837.03;;;7.77;100.00
63115;BME280;49208;50.874;6.466;2023-02-03T20:26:11;101849.41;;;7.75;100.00
63115;BME280;49208;50.874;6.466;2023-02-03T20:28:37;101866.19;;;7.77;100.00
63115;BME280;49208;50.874;6.466;2023-02-03T20:31:02;101855.59;;;7.76;100.00
63115;BME280;49208;50.874;6.466;2023-02-03T20:33:29;101865.31;;;7.75;100.00
63115;BME280;49208;50.874;6.466;2023-02-03T20:35:55;101871.50;;;7.74;100.00
63115;BME280;49208;50.874;6.466;2023-02-03T20:38:21;101871.50;;;7.73;100.00
63115;BME280;49208;50.874;6.466;2023-02-03T20:40:46;101877.69;;;7.72;100.00
63115;BME280;49208;50.874;6.466;2023-02-03T20:43:22;101874.16;;;7.71;100.00
63115;BME280;49208;50.874;6.466;2023-02-03T20:45:49;101867.09;;;7.70;100.00
63115;BME280;49208;50.874;6.466;2023-02-03T20:48:17;101881.22;;;7.74;100.00
63115;BME280;49208;50.874;6.466;2023-02-03T20:50:44;101875.94;;;7.72;100.00
63115;BME280;49208;50.874;6.466;2023-02-03T20:53:22;101884.75;;;7.73;100.00
63115;BME280;49208;50.874;6.466;2023-02-03T20:55:49;101884.78;;;7.74;100.00
63115;BME280;49208;50.874;6.466;2023-02-03T20:58:22;101883.00;;;7.75;100.00
63115;BME280;49208;50.874;6.466;2023-02-03T21:00:48;101884.75;;;7.73;100.00
63115;BME280;49208;50.874;6.466;2023-02-03T21:03:15;101880.34;;;7.73;100.00
63115;BME280;49208;50.874;6.466;2023-02-03T21:06:00;101886.53;;;7.72;100.00
63115;BME280;49208;50.874;6.466;2023-02-03T21:08:26;101882.97;;;7.72;100.00
63115;BME280;49208;50.874;6.466;2023-02-03T21:10:52;101888.28;;;7.72;100.00
63115;BME280;49208;50.874;6.466;2023-02-03T21:13:28;101887.41;;;7.69;100.00
63115;BME280;49208;50.874;6.466;2023-02-03T21:15:59;101882.97;;;7.65;100.00
63115;BME280;49208;50.874;6.466;2023-02-03T21:20:58;101893.59;;;7.61;100.00
63115;BME280;49208;50.874;6.466;2023-02-03T21:23:27;101903.31;;;7.60;100.00
63115;BME280;49208;50.874;6.466;2023-02-03T21:25:56;101904.19;;;7.58;100.00
63115;BME280;49208;50.874;6.466;2023-02-03T21:28:25;101906.84;;;7.56;100.00
63115;BME280;49208;50.874;6.466;2023-02-03T21:30:52;101900.66;;;7.54;100.00
63115;BME280;49208;50.874;6.466;2023-02-03T21:35:52;101906.84;;;7.50;100.00
63115;BME280;49208;50.874;6.466;2023-02-03T21:38:29;101905.97;;;7.49;100.00
63115;BME280;49208;50.874;6.466;2023-02-03T21:40:59;101904.16;;;7.47;100.00
63115;BME280;49208;50.874;6.466;2023-02-03T21:43:26;101908.59;;;7.46;100.00
63115;BME280;49208;50.874;6.466;2023-02-03T21:45:52;101910.38;;;7.43;100.00
63115;BME280;49208;50.874;6.466;2023-02-03T21:48:26;101913.88;;;7.40;100.00
63115;BME280;49208;50.874;6.466;2023-02-03T21:50:53;101905.94;;;7.36;100.00
63115;BME280;49208;50.874;6.466;2023-02-03T21:53:25;101905.03;;;7.32;100.00
63115;BME280;49208;50.874;6.466;2023-02-03T21:55:51;101905.06;;;7.31;100.00
63115;BME280;49208;50.874;6.466;2023-02-03T21:58:20;101905.94;;;7.26;100.00
63115;BME280;49208;50.874;6.466;2023-02-03T22:00:46;101920.06;;;7.25;100.00
63115;BME280;49208;50.874;6.466;2023-02-03T22:05:43;101921.81;;;7.23;100.00
63115;BME280;49208;50.874;6.466;2023-02-03T22:08:19;101918.28;;;7.18;100.00